Flight Track Log - Related Links

Times and Time Zones

All times are in EDT time to prevent confusion due to time zone crossing. See the ANT207 flight status page for this flight to view local times or setup timezone preferences in your user account.

Time Position Orientation Groundspeed Altitude Reporting Facility
EDT Latitude Longitude Course Direction KTS MPH feet Rate Location/Type
Thu 12:10:00 PM 64.7911 -138.2590 26° Northeast  Level FlightAware Approximate
Thu 12:11:00 PM 64.8451 -138.1963 26° Northeast  Level FlightAware Approximate
Thu 12:12:00 PM 64.8991 -138.1333 26° Northeast  Level FlightAware Approximate
Thu 12:13:00 PM 64.9530 -138.0700 26° Northeast  Level FlightAware Approximate
Thu 12:14:00 PM 65.0070 -138.0065 26° Northeast  Level FlightAware Approximate
Thu 12:15:00 PM 65.0609 -137.9427 27° Northeast  Level FlightAware Approximate
Thu 12:16:00 PM 65.1148 -137.8787 27° Northeast  Level FlightAware Approximate
Thu 12:17:00 PM 65.1686 -137.8144 27° Northeast  Level FlightAware Approximate
Thu 12:18:00 PM 65.2225 -137.7498 27° Northeast  Level FlightAware Approximate
Thu 12:19:00 PM 65.2763 -137.6850 27° Northeast  Level FlightAware Approximate
Thu 12:20:00 PM 65.3300 -137.6199 27° Northeast  Level FlightAware Approximate
Thu 12:21:00 PM 65.3838 -137.5546 27° Northeast  Level FlightAware Approximate
Thu 12:22:00 PM 65.4375 -137.4890 27° Northeast  Level FlightAware Approximate
Thu 12:23:00 PM 65.4912 -137.4231 27° Northeast  Level FlightAware Approximate
Thu 12:24:00 PM 65.5449 -137.3569 27° Northeast  Level FlightAware Approximate
Thu 12:25:00 PM 65.5985 -137.2905 27° Northeast  Level FlightAware Approximate
Thu 12:26:00 PM 65.6521 -137.2238 27° Northeast  Level FlightAware Approximate
Thu 12:27:00 PM 65.7057 -137.1568 27° Northeast  Level FlightAware Approximate
Thu 12:28:00 PM 65.7592 -137.0896 27° Northeast  Level FlightAware Approximate
Thu 12:29:00 PM 65.8127 -137.0220 27° Northeast  Level FlightAware Approximate
Thu 12:30:00 PM 65.8662 -136.9542 27° Northeast  Level FlightAware Approximate
Thu 12:31:00 PM 65.9197 -136.8861 27° Northeast  Level FlightAware Approximate
Thu 12:32:00 PM 65.9731 -136.8177 28° Northeast  Level FlightAware Approximate
Thu 12:33:00 PM 66.0265 -136.7490 28° Northeast  Level FlightAware Approximate
Thu 12:34:00 PM 66.0799 -136.6801 28° Northeast  Level FlightAware Approximate
Thu 12:35:00 PM 66.1332 -136.6108 28° Northeast  Level FlightAware Approximate
Thu 12:36:00 PM 66.1865 -136.5412 28° Northeast  Level FlightAware Approximate
Thu 12:37:00 PM 66.2398 -136.4714 28° Northeast  Level FlightAware Approximate
Thu 12:38:00 PM 66.2930 -136.4013 28° Northeast  Level FlightAware Approximate
Thu 12:39:00 PM 66.3462 -136.3308 28° Northeast  Level FlightAware Approximate
Thu 12:40:00 PM 66.3994 -136.2601 28° Northeast  Level FlightAware Approximate
Thu 12:41:00 PM 66.4525 -136.1891 28° Northeast  Level FlightAware Approximate
Thu 12:42:00 PM 66.5057 -136.1177 28° Northeast  Level FlightAware Approximate
Thu 12:43:00 PM 66.5587 -136.0461 28° Northeast  Level FlightAware Approximate
Thu 12:44:00 PM 66.6118 -135.9742 28° Northeast  Level FlightAware Approximate
Thu 12:45:00 PM 66.6648 -135.9019 28° Northeast  Level FlightAware Approximate
Thu 12:46:00 PM 66.7178 -135.8293 28° Northeast  Level FlightAware Approximate
Thu 12:47:00 PM 66.7707 -135.7564 28° Northeast  Level FlightAware Approximate
Thu 12:48:00 PM 66.8236 -135.6832 29° Northeast  Level FlightAware Approximate
Thu 12:49:00 PM 66.8765 -135.6097 29° Northeast  Level FlightAware Approximate
Thu 12:50:00 PM 66.9294 -135.5359 29° Northeast  Level FlightAware Approximate
Thu 12:51:00 PM 66.9822 -135.4618 29° Northeast  Level FlightAware Approximate
Thu 12:52:00 PM 67.0349 -135.3873 29° Northeast  Level FlightAware Approximate
Thu 12:53:00 PM 67.0877 -135.3125 29° Northeast  Level FlightAware Approximate
Thu 12:54:00 PM 67.1404 -135.2374 29° Northeast  Level FlightAware Approximate
Thu 12:55:00 PM 67.1930 -135.1619 29° Northeast  Level FlightAware Approximate
Thu 12:56:00 PM 67.2457 -135.0861 29° Northeast  Level FlightAware Approximate
Thu 12:57:00 PM 67.2983 -135.0100 29° Northeast  Level FlightAware Approximate
Thu 12:58:00 PM 67.3507 -134.9329 30° Northeast  Level FlightAware Approximate
Thu 12:59:00 PM 67.4030 -134.8552 30° Northeast  Level FlightAware Approximate
Thu 01:00:00 PM 67.4553 -134.7771 30° Northeast  Level FlightAware Approximate
Thu 01:01:00 PM 67.5075 -134.6986 30° Northeast  Level FlightAware Approximate
Thu 01:02:00 PM 67.5597 -134.6198 30° Northeast  Level FlightAware Approximate
Thu 01:03:00 PM 67.6119 -134.5406 30° Northeast  Level FlightAware Approximate
Thu 01:04:00 PM 67.6647 -134.4643 29° Northeast  Level FlightAware Approximate
Thu 01:05:00 PM 67.7175 -134.3880 29° Northeast  Level FlightAware Approximate
Thu 01:06:00 PM 67.7702 -134.3109 32° Northeast  Level FlightAware Approximate
Thu 01:07:00 PM 67.8216 -134.2274 32° Northeast  Level FlightAware Approximate
Thu 01:08:00 PM 67.8729 -134.1436 32° Northeast  Level FlightAware Approximate
Thu 01:09:00 PM 67.9241 -134.0594 32° Northeast  Level FlightAware Approximate
Thu 01:10:00 PM 67.9770 -133.9830 25° Northeast  Level FlightAware Approximate
Thu 01:11:00 PM 68.0308 -133.9108 31° Northeast  Level FlightAware Approximate
Thu 01:12:00 PM 68.0825 -133.8281 31° Northeast  Level FlightAware Approximate
Thu 01:13:00 PM 68.1334 -133.7416 33° Northeast  Level FlightAware Approximate
Thu 01:14:00 PM 68.1839 -133.6532 33° Northeast  Level FlightAware Approximate
Thu 01:15:00 PM 68.2345 -133.5649 29° Northeast  Level FlightAware Approximate
Thu 01:16:00 PM 68.2872 -133.4860 29° Northeast  Level FlightAware Approximate
Thu 01:17:00 PM 68.3000 -133.4667 29° Northeast  Level FlightAware Approximate
Thu 01:18:00 PM 68.3042 -133.4828 29° Northeast  Level Estimated
Thu 01:19:00 PM 68.3042 -133.4828 29° Northeast  Level Estimated
Thu 01:20:00 PM 68.3042 -133.4828 29° Northeast  Level Estimated
Thu 01:21:00 PM 68.3042 -133.4828 29° Northeast  Level Estimated
Thu 01:22:00 PM 68.3042 -133.4828 29° Northeast  Level Estimated
Thu 01:23:00 PM 68.3042 -133.4828 29° Northeast  Level Estimated
Thu 01:24:00 PM 68.3042 -133.4828 29° Northeast  Level Estimated
Thu 01:25:00 PM 68.3042 -133.4828 29° Northeast  Level Estimated
Thu 01:26:00 PM 68.3042 -133.4828 29° Northeast  Level Estimated
Thu 01:27:00 PM 68.3042 -133.4828 29° Northeast  Level Estimated
Thu 01:28:00 PM 68.3042 -133.4828 29° Northeast  Level Estimated
Thu 01:29:00 PM 68.3042 -133.4828 29° Northeast  Level Estimated
Thu 01:30:00 PM 68.3042 -133.4828 29° Northeast  Level Estimated
Thu 01:31:00 PM 68.3042 -133.4828 29° Northeast  Level Estimated

Login

Don't have an account? Register now (free) for customized features, flight alerts, and more!